Latest Coastal Weather Observations for Darwin Airport

IDD60701

Issued at 9:41 am CST Thursday 19 October 2017 (issued every 10 minutes, with the page automatically refreshed every 10 minutes)

About coastal observations | Map of coastal stations | Coastal observations for NT | Marine services | Other Formats
Station Details ID: 014015 Name: DARWIN AIRPORT Lat: -12.42 Lon: 130.89 Height: 30.4 m
Data from the previous 72 hours. | See also: Recent months at Darwin Airport
Date/Time
CST
Temp
°C
Wind Pressure Rain since
9am
mm
Weather Cloud Vis
km
Sea
Height
m
Swell
Dir  Spd
kts
Gust
kts
hPa Trend Height
m
Period
s
Dir
19/09:30am 31.1 NNW 7 9 1010.5 - 0.0 - Partly cloudy 10 - - - -
19/09:00am 30.2 NNW 6 9 1010.5 F 0.6 Fine Mostly cloudy 30 - - - -
19/08:30am 29.4 N 5 7 1010.5 - 0.6 - Mostly clear 10 - - - -
19/08:00am 28.8 N 8 11 1010.2 - 0.6 - Mostly clear 10 - - - -
19/07:30am 28.2 N 4 6 1009.9 - 0.6 - Mostly clear 10 - - - -
19/07:00am 27.6 N 4 5 1009.5 - 0.6 - Mostly clear 10 - - - -
19/06:30am 27.4 N 5 7 1009.1 - 0.6 - - 10 - - - -
19/06:00am 26.9 N 4 5 1008.9 R 0.6 - Mostly cloudy 10 - - - -
19/05:30am 27.3 NNE 5 7 1008.6 - 0.6 - - 10 - - - -
19/05:00am 27.4 N 4 6 1008.1 - 0.6 - - 10 - - - -
19/04:30am 27.3 N 5 8 1007.9 - 0.6 - - 10 - - - -
19/04:00am 27.5 NNE 4 6 1007.8 - 0.6 - Mostly clear 10 - - - -
19/03:30am 27.7 NNE 4 6 1007.4 - 0.6 - Mostly clear 10 - - - -
19/03:00am 27.4 NNE 4 6 1007.3 R 0.6 Fine Mostly cloudy 30 - - - -
19/02:30am 27.2 NNE 4 6 1007.4 - 0.6 - Mostly clear 10 - - - -
19/02:00am 27.1 NNE 5 6 1007.4 - 0.6 - Mostly clear 10 - - - -
19/01:30am 27.1 NNE 4 6 1007.6 - 0.6 - - 10 - - - -
19/01:00am 27.1 NE 3 4 1007.8 - 0.6 - Cloudy 10 - - - -
19/12:30am 27.4 N 2 3 1007.9 - 0.6 - - 10 - - - -
19/12:00am 27.4 N 3 5 1008.0 F 0.6 Fine Partly cloudy 30 - - - -
 
Date/Time
CST
Temp
°C
Wind Pressure Rain since
9am
mm
Weather Cloud Vis
km
Sea
Height
m
Swell
Dir  Spd
kts
Gust
kts
hPa Trend Height
m
Period
s
Dir
18/11:30pm 27.9 NNE 4 4 1008.1 - 0.6 - Mostly clear 10 - - - -
18/11:00pm 27.8 NNE 5 8 1008.2 - 0.6 - Mostly clear 10 - - - -
18/10:30pm 28.1 NNW 4 5 1008.1 - 0.6 - - 10 - - - -
18/10:00pm 26.9 N 2 3 1008.2 - 0.6 - - 10 - - - -
18/09:30pm 27.4 N 2 3 1008.0 - 0.6 - - 10 - - - -
18/09:00pm 27.9 N 3 5 1007.9 R 0.6 Fine Partly cloudy 30 - - - -
18/08:30pm 27.4 NNE 4 5 1007.6 - 0.6 - - 10 - - - -
18/08:00pm 27.4 E 2 3 1007.7 - 0.6 - - 10 - - - -
18/07:30pm 27.7 WSW 1 4 1007.1 - 0.6 - Mostly clear 10 - - - -
18/07:00pm 28.8 W 2 3 1006.8 - 0.6 - - 10 - - - -
18/06:30pm 29.5 NW 5 6 1006.1 - 0.6 - - 10 - - - -
18/06:00pm 29.9 NW 7 9 1005.5 F 0.6 Fine Mostly cloudy 30 - - - -
18/05:30pm 30.5 NW 5 7 1005.3 - 0.6 - - 10 - - - -
18/05:00pm 30.6 NNW 6 8 1005.2 - 0.6 - - 10 - - - -
18/04:30pm 30.7 NNW 7 9 1005.3 - 0.6 - - 10 - - - -
18/04:00pm 30.8 NNW 7 10 1005.6 - 0.6 - - 10 - - - -
18/03:30pm 31.0 NNW 7 9 1005.9 - 0.6 - - 10 - - - -
18/03:00pm 31.3 N 7 8 1006.0 F 0.6 Fine Mostly cloudy 30 - - - -
18/02:30pm 31.5 WNW 3 5 1006.5 - 0.6 - Mostly clear 10 - - - -
18/02:00pm 31.2 WNW 7 9 1007.2 - 0.6 - Mostly clear 10 - - - -
18/01:30pm 30.3 NNW 7 11 1007.6 - 0.6 - Mostly clear 10 - - - -
18/01:00pm 30.4 NW 7 9 1008.1 - 0.6 - Mostly clear 10 - - - -
18/12:30pm 29.6 NW 8 11 1008.6 - 0.6 - Mostly clear 10 - - - -
18/12:00pm 29.0 NW 11 14 1009.1 F 0.6 Fine Mostly cloudy 30 - - - -
18/11:30am 28.6 WNW 13 16 1009.6 - 0.6 - Partly cloudy 10 - - - -
18/11:00am 26.9 NNW 11 17 1009.9 - 0.6 - Cloudy 10 - - - -
18/10:30am 25.2 N 14 18 1009.6 - 0.6 - Cloudy 10 - - - -
18/10:00am 24.7 NE 11 16 1011.1 - 0.6 - Partly cloudy 10 - - - -
18/09:30am 24.1 ENE 13 16 1011.6 - 0.6 - Partly cloudy 10 - - - -
18/09:00am 25.1 ENE 11 15 1011.2 R 3.4 Showers Cloudy 10 - - - -
18/08:30am 25.7 NE 8 12 1010.2 - 3.4 - Partly cloudy 10 - - - -
18/08:00am 27.2 ENE 3 5 1008.7 - 3.4 - Partly cloudy 10 - - - -
18/07:45am 27.5 E 3 4 1008.7 - 3.4 Showers Mostly clear 10 - - - -
18/07:30am 27.0 E 1 4 1008.2 - 3.4 - Mostly clear 10 - - - -
18/07:28am 26.9 E 1 4 1008.2 - 3.4 Showers Mostly clear 10 - - - -
18/07:00am 26.2 NE 3 6 1008.2 - 3.4 - Mostly clear 10 - - - -
18/06:30am 26.0 WNW 4 6 1007.5 - 3.4 - Mostly clear 10 - - - -
18/06:00am 26.6 W 6 8 1007.2 R 3.4 Fine Mostly cloudy 30 - - - -
18/05:30am 25.4 WNW 4 7 1007.4 - 3.4 - Mostly clear 10 - - - -
18/05:26am 25.7 W 5 8 1007.4 - 3.2 Showers Mostly clear 8 - - - -
18/05:14am 26.9 SW 10 16 1007.2 - 2.2 Showers Partly cloudy 5 - - - -
18/05:00am 28.8 WNW 5 8 1007.0 - 0.0 Showers Partly cloudy 9 - - - -
18/04:30am 29.2 NNW 6 9 1006.5 - 0.0 - Mostly clear 10 - - - -
18/04:00am 29.1 NW 7 9 1006.3 - 0.0 - Mostly clear 10 - - - -
18/03:30am 29.0 NW 7 10 1006.1 - 0.0 - Mostly clear 10 - - - -
18/03:00am 29.1 WNW 7 8 1006.1 R 0.0 Fine Partly cloudy 30 - - - -
18/02:30am 29.1 NW 6 8 1006.4 - 0.0 - Mostly clear 10 - - - -
18/02:00am 29.2 NW 7 10 1006.5 - 0.0 - Mostly clear 10 - - - -
18/01:30am 29.0 WNW 8 10 1006.6 - 0.0 - Partly cloudy 10 - - - -
18/01:00am 29.1 WNW 6 9 1006.8 - 0.0 - Partly cloudy 10 - - - -
18/12:30am 29.0 WNW 7 9 1007.0 - 0.0 - Mostly clear 10 - - - -
18/12:00am 28.9 W 7 10 1007.0 F 0.0 Fine Mostly clear 30 - - - -
 
Date/Time
CST
Temp
°C
Wind Pressure Rain since
9am
mm
Weather Cloud Vis
km
Sea
Height
m
Swell
Dir  Spd
kts
Gust
kts
hPa Trend Height
m
Period
s
Dir
17/11:30pm 29.0 W 5 8 1007.2 - 0.0 - Mostly clear 10 - - - -
17/11:00pm 29.1 W 7 10 1007.1 - 0.0 - Mostly clear 10 - - - -
17/10:30pm 29.0 W 6 9 1007.1 - 0.0 - - 10 - - - -
17/10:00pm 29.3 WSW 7 11 1006.9 - 0.0 - Mostly clear 10 - - - -
17/09:30pm 29.3 W 7 10 1006.6 - 0.0 - - 10 - - - -
17/09:00pm 29.4 W 8 12 1006.4 F 0.0 Fine Mostly clear 30 - - - -
17/08:30pm 29.7 W 9 13 1006.2 - 0.0 - - 10 - - - -
17/08:00pm 30.0 W 11 14 1006.1 - 0.0 - Mostly clear 10 - - - -
17/07:30pm 29.9 W 10 13 1005.9 - 0.0 - Mostly clear 10 - - - -
17/07:00pm 30.0 W 11 14 1005.4 - 0.0 - Mostly clear 10 - - - -
17/06:30pm 30.2 WNW 12 16 1004.9 - 0.0 - Mostly clear 10 - - - -
17/06:00pm 30.5 W 11 15 1004.8 R 0.0 Fine Mostly cloudy 25 - - - -
17/05:30pm 30.9 WNW 13 16 1004.8 - 0.0 - Mostly clear 10 - - - -
17/05:00pm 30.9 WNW 14 19 1004.5 - 0.0 - Mostly clear 10 - - - -
17/04:30pm 30.9 WNW 16 22 1003.8 - 0.0 - Mostly clear 10 - - - -
17/04:00pm 32.1 WNW 16 20 1004.3 - 0.0 - Mostly clear 10 - - - -
17/03:30pm 32.5 WNW 16 20 1004.4 - 0.0 - Mostly clear 10 - - - -
17/03:00pm 33.6 WNW 15 20 1004.5 F 0.0 Fine Mostly clear 30 - - - -
17/02:30pm 33.5 WNW 15 19 1004.6 - 0.0 - Mostly clear 10 - - - -
17/02:00pm 32.7 WNW 16 21 1005.3 - 0.0 - Mostly clear 10 - - - -
17/01:30pm 33.7 WNW 15 18 1006.0 - 0.0 - Mostly clear 10 - - - -
17/01:00pm 32.9 NW 13 17 1006.5 - 0.0 - Mostly clear 10 - - - -
17/12:30pm 33.2 NW 12 15 1006.9 - 0.0 - Mostly clear 10 - - - -
17/12:00pm 33.2 WNW 11 15 1007.4 F 0.0 Fine Partly cloudy 30 - - - -
17/11:30am 32.9 NW 13 17 1007.9 - 0.0 - Partly cloudy 10 - - - -
17/11:00am 32.4 NW 11 14 1008.6 - 0.0 - Partly cloudy 10 - - - -
17/10:30am 32.1 WNW 10 13 1008.9 - 0.0 - Partly cloudy 10 - - - -
17/10:00am 32.1 W 9 13 1008.9 - 0.0 - Mostly clear 10 - - - -
17/09:30am 30.7 WNW 10 13 1008.9 - 0.0 - Mostly clear 10 - - - -
17/09:00am 30.6 WNW 9 13 1008.8 R 0.2 Fine Mostly clear 30 - - - -
17/08:30am 30.2 WNW 8 11 1008.7 - 0.2 - Partly cloudy 10 - - - -
17/08:00am 30.4 W 6 9 1008.5 - 0.2 - Partly cloudy 10 - - - -
17/07:30am 29.8 WSW 7 10 1007.8 - 0.2 - - 10 - - - -
17/07:00am 29.1 W 6 9 1007.3 - 0.2 - Partly cloudy 10 - - - -
17/06:30am 28.9 WNW 9 12 1006.8 - 0.2 - - 10 - - - -
17/06:00am 28.7 WNW 7 10 1006.6 R 0.2 - - 10 - - - -
17/05:30am 28.7 WNW 7 10 1006.5 - 0.2 - Mostly clear 10 - - - -
17/05:00am 28.9 WNW 8 10 1006.1 - 0.2 - Mostly clear 10 - - - -
17/04:30am 28.9 WNW 9 11 1005.8 - 0.2 - Mostly clear 10 - - - -
17/04:00am 29.0 WNW 9 10 1005.8 - 0.2 - Mostly clear 10 - - - -
17/03:30am 29.0 WNW 8 11 1005.8 - 0.2 - Partly cloudy 10 - - - -
17/03:00am 29.1 WNW 11 14 1005.7 R 0.2 Fine Partly cloudy 30 - - - -
17/02:30am 29.2 WNW 9 12 1005.8 - 0.2 - Mostly clear 10 - - - -
17/02:00am 29.1 WNW 10 15 1005.7 - 0.2 - Mostly clear 10 - - - -
17/01:30am 29.2 WNW 11 15 1005.8 - 0.2 - Mostly clear 10 - - - -
17/01:00am 29.3 WNW 12 15 1006.0 - 0.2 - Mostly clear 10 - - - -
17/12:30am 29.4 WNW 11 14 1006.2 - 0.2 - Partly cloudy 10 - - - -
17/12:00am 29.4 WNW 11 13 1006.3 F 0.2 Fine Partly cloudy 30 - - - -
 
Date/Time
CST
Temp
°C
Wind Pressure Rain since
9am
mm
Weather Cloud Vis
km
Sea
Height
m
Swell
Dir  Spd
kts
Gust
kts
hPa Trend Height
m
Period
s
Dir
16/11:30pm 29.4 WNW 11 15 1006.3 - 0.2 - Mostly clear 10 - - - -
16/11:00pm 29.5 WNW 9 13 1006.6 - 0.2 - Mostly clear 10 - - - -
16/10:30pm 29.5 WNW 11 15 1006.7 - 0.2 - Mostly clear 10 - - - -
16/10:00pm 29.5 W 10 14 1006.6 - 0.2 - Mostly clear 10 - - - -
16/09:30pm 29.5 W 9 13 1006.3 - 0.2 - Mostly clear 10 - - - -
16/09:00pm 29.5 W 9 13 1005.9 F 0.2 Fine Mostly clear 30 - - - -
16/08:30pm 29.7 W 9 12 1005.8 - 0.2 - - 10 - - - -
16/08:00pm 30.1 WSW 9 12 1006.2 - 0.2 - Mostly clear 10 - - - -
16/07:30pm 30.0 W 9 12 1006.1 - 0.2 - Mostly clear 10 - - - -
16/07:00pm 30.1 WNW 11 14 1005.5 - 0.2 - Mostly clear 10 - - - -
16/06:30pm 30.7 WNW 11 14 1004.8 - 0.2 - Mostly clear 10 - - - -
16/06:00pm 31.1 NW 11 13 1004.7 R 0.2 Fine Partly cloudy 30 - - - -
16/05:30pm 32.1 WNW 11 13 1004.6 - 0.2 - Mostly clear 10 - - - -
16/05:00pm 32.2 WNW 13 16 1004.6 - 0.2 - Mostly clear 10 - - - -
16/04:30pm 33.6 WNW 15 18 1004.3 - 0.2 - Mostly clear 10 - - - -
16/04:00pm 32.6 WNW 15 19 1004.0 - 0.2 - Mostly clear 10 - - - -
16/03:30pm 33.0 WNW 16 20 1004.0 - 0.2 - Mostly clear 10 - - - -
16/03:00pm 33.3 NW 16 20 1004.3 S 0.2 Fine Mostly clear 30 - - - -
16/02:30pm 33.0 WNW 13 17 1004.8 - 0.2 - Mostly clear 10 - - - -
16/02:00pm 33.3 NNW 12 15 1005.3 - 0.2 - Mostly clear 10 - - - -
16/01:30pm 33.0 NW 10 14 1005.6 - 0.2 - Mostly clear 10 - - - -
16/01:00pm 32.9 NW 10 13 1006.1 - 0.2 - Mostly clear 10 - - - -
16/12:30pm 32.5 NW 9 11 1006.5 - 0.2 - Mostly clear 10 - - - -
16/12:00pm 31.7 WNW 7 12 1007.0 F 0.2 Fine Partly cloudy 30 - - - -
16/11:30am 31.9 WNW 6 9 1007.6 - 0.2 - Partly cloudy 10 - - - -
16/11:00am 31.2 WNW 5 9 1008.0 - 0.2 - Partly cloudy 10 - - - -
16/10:30am 30.8 WNW 6 9 1008.4 - 0.2 - Partly cloudy 10 - - - -
16/10:00am 31.3 WNW 5 9 1008.5 - 0.2 - Mostly clear 10 - - - -

Other Formats:

Comma delimited format used in spreadsheet applications
http://www.bom.gov.au/fwo/IDD60701/IDD60701.94120.axf

JavaScript Object Notation format (JSON) in row-major order
http://www.bom.gov.au/fwo/IDD60701/IDD60701.94120.json